Time;durP1;ratioP1;P1;durP2;ratioP2;P2;SDS_P1;SDS_P2;PMS_P1;PMS_P2;Temp;Humidity;BMP_temperature;BMP_pressure;BME280_temperature;BME280_humidity;BME280_pressure;Samples;Min_cycle;Max_cycle;Signal;HPM_P1;HPM_P2
2022/09/15 00:00:03;;;;;;;;;;;;;;;16.51;100.00;94974.41;1042565;28;19947;-66
2022/09/15 00:00:34;;;;;;;;;;;;;;;16.48;100.00;94961.81;1038694;28;19905;-68
2022/09/15 00:01:05;;;;;;;;;;;;;;;16.47;100.00;94965.56;1034256;28;19977;-67
2022/09/15 00:01:36;;;;;;;;;;;;;;;16.47;100.00;94966.34;1030826;28;19999;-67
2022/09/15 00:02:07;;;;;;;;;;;;;;;16.53;100.00;94966.13;1034395;28;19909;-66
2022/09/15 00:02:37;;;;;;;;;;;;;;;16.51;100.00;94966.47;1038995;28;19999;-67
2022/09/15 00:03:07;;;;;;;;;;;;;;;16.50;100.00;94970.22;1039547;28;19909;-67
2022/09/15 00:03:38;;;;;;;;;;;;;;;16.48;100.00;94967.09;1051077;28;20324;-67
2022/09/15 00:04:08;;;;;;;;;;;;;;;16.47;100.00;94971.63;1038691;28;20309;-67
2022/09/15 00:04:38;;;;;;;;;;;;;;;16.49;100.00;94966.00;1042684;28;19955;-68
2022/09/15 00:05:09;;;;;;;;;;;;;;;16.49;100.00;94968.66;1042770;28;19917;-69
2022/09/15 00:05:39;;;;;;;;;;;;;;;16.50;100.00;94964.94;1040062;28;19920;-69
2022/09/15 00:06:10;;;;;;;;;;;;;;;16.51;100.00;94969.13;1034821;28;20363;-66
2022/09/15 00:06:40;;;;;;;;;;;;;;;16.49;100.00;94966.00;1040300;28;19909;-68
2022/09/15 00:07:10;;;;;;;;;;;;;;;16.49;100.00;94968.66;1041527;28;20540;-67
2022/09/15 00:07:41;;;;;;;;;;;;;;;16.49;100.00;94972.06;1042884;28;19908;-68
2022/09/15 00:08:14;;;;;;;;;;;;;;;16.48;100.00;94962.56;1047073;28;20003;-67
2022/09/15 00:08:44;;;;;;;;;;;;;;;16.47;100.00;94965.56;1042529;28;19908;-68
2022/09/15 00:09:14;;;;;;;;;;;;;;;16.47;100.00;94968.22;1037383;28;19905;-66
2022/09/15 00:09:45;;;;;;;;;;;;;;;16.47;100.00;94970.84;1034626;28;19908;-66
2022/09/15 00:10:16;;;;;;;;;;;;;;;16.47;100.00;94966.34;1035113;28;20493;-68
2022/09/15 00:10:48;;;;;;;;;;;;;;;16.47;100.00;94963.69;1038622;28;19909;-66
2022/09/15 00:11:19;;;;;;;;;;;;;;;16.49;100.00;94963.34;1034515;28;20437;-68
2022/09/15 00:11:49;;;;;;;;;;;;;;;16.49;100.00;94952.75;1042701;28;19905;-67
2022/09/15 00:12:20;;;;;;;;;;;;;;;16.53;100.00;94953.66;1043136;28;19950;-68
2022/09/15 00:12:50;;;;;;;;;;;;;;;16.53;100.00;94958.19;1038318;28;20310;-67
2022/09/15 00:13:20;;;;;;;;;;;;;;;16.53;100.00;94958.97;1038743;28;19909;-66
2022/09/15 00:13:51;;;;;;;;;;;;;;;16.52;100.00;94954.78;1034596;28;19932;-68
2022/09/15 00:14:21;;;;;;;;;;;;;;;16.53;100.00;94958.97;1038670;28;19945;-67
2022/09/15 00:14:52;;;;;;;;;;;;;;;16.53;100.00;94961.59;1038509;28;19909;-68
2022/09/15 00:15:22;;;;;;;;;;;;;;;16.52;100.00;94948.69;1030756;28;20254;-67
2022/09/15 00:15:53;;;;;;;;;;;;;;;16.52;100.00;94943.41;1034727;28;20800;-66
2022/09/15 00:16:23;;;;;;;;;;;;;;;16.52;100.00;94952.13;1034578;28;19906;-66
2022/09/15 00:16:54;;;;;;;;;;;;;;;16.50;100.00;94957.75;1034437;28;20373;-68
2022/09/15 00:17:24;;;;;;;;;;;;;;;16.47;100.00;94960.25;1038788;28;19940;-66
2022/09/15 00:17:55;;;;;;;;;;;;;;;16.44;100.00;94950.31;1046859;28;19900;-67
2022/09/15 00:18:25;;;;;;;;;;;;;;;16.43;100.00;94954.81;1051186;28;19907;-66
2022/09/15 00:18:55;;;;;;;;;;;;;;;16.45;100.00;94946.56;1051007;28;19908;-68
2022/09/15 00:19:26;;;;;;;;;;;;;;;16.44;100.00;94956.38;1046875;28;19904;-69
2022/09/15 00:19:57;;;;;;;;;;;;;;;16.45;100.00;94951.84;1034684;28;20008;-67
2022/09/15 00:20:27;;;;;;;;;;;;;;;16.42;100.00;94955.91;1034565;28;19909;-70
2022/09/15 00:20:57;;;;;;;;;;;;;;;16.43;100.00;94951.38;1037994;28;19910;-68
2022/09/15 00:21:30;;;;;;;;;;;;;;;16.41;100.00;94954.34;1038314;28;20394;-68
2022/09/15 00:22:00;;;;;;;;;;;;;;;16.43;100.00;94951.38;1034814;28;19906;-67
2022/09/15 00:22:30;;;;;;;;;;;;;;;16.43;100.00;94954.03;1035007;28;19917;-67
2022/09/15 00:23:01;;;;;;;;;;;;;;;16.43;100.00;94957.47;1034303;28;20544;-67
2022/09/15 00:23:31;;;;;;;;;;;;;;;16.42;100.00;94947.19;1034605;28;19909;-68
2022/09/15 00:24:01;;;;;;;;;;;;;;;16.41;100.00;94946.41;1038726;28;19909;-68
2022/09/15 00:24:32;;;;;;;;;;;;;;;16.40;100.00;94944.09;1038731;28;19963;-69
2022/09/15 00:25:02;;;;;;;;;;;;;;;16.37;100.00;94940.22;1042608;28;19963;-68
2022/09/15 00:25:32;;;;;;;;;;;;;;;16.36;100.00;94938.63;1037692;28;19982;-67
2022/09/15 00:26:05;;;;;;;;;;;;;;;16.38;100.00;94935.69;1038674;28;19956;-68
2022/09/15 00:26:35;;;;;;;;;;;;;;;16.38;100.00;94939.09;1042584;28;20329;-68
2022/09/15 00:27:06;;;;;;;;;;;;;;;16.38;100.00;94935.69;1038952;28;19909;-68
2022/09/15 00:27:36;;;;;;;;;;;;;;;16.35;100.00;94939.75;1042820;28;19904;-68
2022/09/15 00:28:06;;;;;;;;;;;;;;;16.36;100.00;94936.00;1040883;28;19948;-67
2022/09/15 00:28:37;;;;;;;;;;;;;;;16.38;100.00;94935.69;1043013;28;20322;-66
2022/09/15 00:29:07;;;;;;;;;;;;;;;16.34;100.00;94938.19;1042610;28;20285;-66
2022/09/15 00:29:37;;;;;;;;;;;;;;;16.36;100.00;94933.34;1038487;28;19909;-67
2022/09/15 00:30:08;;;;;;;;;;;;;;;16.37;100.00;94934.91;1042769;28;20280;-67
2022/09/15 00:30:39;;;;;;;;;;;;;;;16.37;100.00;94940.22;1042805;28;19920;-67
2022/09/15 00:31:11;;;;;;;;;;;;;;;16.37;100.00;94934.91;1042328;28;19909;-67
2022/09/15 00:31:41;;;;;;;;;;;;;;;16.37;100.00;94939.44;1042889;28;19905;-68
2022/09/15 00:32:11;;;;;;;;;;;;;;;16.36;100.00;94940.50;1038490;28;20011;-67
2022/09/15 00:32:41;;;;;;;;;;;;;;;16.35;100.00;94936.31;1034558;28;19909;-68
2022/09/15 00:33:12;;;;;;;;;;;;;;;16.33;100.00;94939.31;1026279;28;20355;-68
2022/09/15 00:33:45;;;;;;;;;;;;;;;16.31;100.00;94935.41;1030586;28;19917;-67
2022/09/15 00:34:15;;;;;;;;;;;;;;;16.29;100.00;94943.66;1031032;28;19906;-67
2022/09/15 00:34:46;;;;;;;;;;;;;;;16.29;100.00;94940.22;1031554;28;19906;-67
2022/09/15 00:35:16;;;;;;;;;;;;;;;16.29;100.00;94937.59;1026842;28;19918;-66
2022/09/15 00:35:48;;;;;;;;;;;;;;;16.27;100.00;94938.69;1027766;28;19910;-67
2022/09/15 00:36:18;;;;;;;;;;;;;;;16.25;100.00;94938.22;1030529;28;20422;-68
2022/09/15 00:36:48;;;;;;;;;;;;;;;16.24;100.00;94936.69;1036079;28;19902;-68
2022/09/15 00:37:18;;;;;;;;;;;;;;;16.23;100.00;94939.63;1042870;28;19909;-68
2022/09/15 00:37:49;;;;;;;;;;;;;;;16.24;100.00;94941.97;1038560;28;20012;-67
2022/09/15 00:38:19;;;;;;;;;;;;;;;16.20;100.00;94935.75;1036887;28;20401;-67
2022/09/15 00:38:49;;;;;;;;;;;;;;;16.22;100.00;94932.78;1038761;28;19947;-67
2022/09/15 00:39:20;;;;;;;;;;;;;;;16.29;100.00;94932.28;1034612;28;19920;-69
2022/09/15 00:39:51;;;;;;;;;;;;;;;16.26;100.00;94936.34;1038443;28;20390;-67
2022/09/15 00:40:21;;;;;;;;;;;;;;;16.24;100.00;94936.69;1042951;28;19905;-68
2022/09/15 00:40:53;;;;;;;;;;;;;;;16.23;100.00;94939.63;1046914;28;19909;-70
2022/09/15 00:41:23;;;;;;;;;;;;;;;16.22;100.00;94938.84;1046591;28;20324;-66
2022/09/15 00:41:53;;;;;;;;;;;;;;;16.24;100.00;94941.19;1039073;28;19913;-66
2022/09/15 00:42:24;;;;;;;;;;;;;;;16.26;100.00;94945.09;1034736;28;20422;-67
2022/09/15 00:42:54;;;;;;;;;;;;;;;16.26;100.00;94937.16;1032065;28;19928;-67
2022/09/15 00:43:43;;;;;;;;;;;;;;;16.25;100.00;94942.75;1037582;28;19909;-67
2022/09/15 00:44:32;;;;;;;;;;;;;;;16.27;100.00;94941.34;1038498;28;19901;-66
2022/09/15 00:45:03;;;;;;;;;;;;;;;16.30;100.00;94944.44;1039205;28;19915;-66
2022/09/15 00:45:33;;;;;;;;;;;;;;;16.30;100.00;94949.72;1038721;28;19912;-67
2022/09/15 00:46:03;;;;;;;;;;;;;;;16.30;100.00;94944.44;1040959;28;20389;-67
2022/09/15 00:46:35;;;;;;;;;;;;;;;16.31;100.00;94946.78;1038760;28;19912;-67
2022/09/15 00:47:05;;;;;;;;;;;;;;;16.30;100.00;94944.44;1034636;28;20048;-69
2022/09/15 00:47:36;;;;;;;;;;;;;;;16.30;100.00;94942.59;1034532;28;20389;-65
2022/09/15 00:48:09;;;;;;;;;;;;;;;16.30;100.00;94934.63;1034697;28;20450;-68
2022/09/15 00:48:44;;;;;;;;;;;;;;;16.31;100.00;94946.00;1037721;28;20048;-67
2022/09/15 00:49:15;;;;;;;;;;;;;;;16.31;100.00;94943.34;1042761;28;19909;-69
2022/09/15 00:49:46;;;;;;;;;;;;;;;16.30;100.00;94945.22;1034608;28;19902;-68
2022/09/15 00:50:17;;;;;;;;;;;;;;;16.30;100.00;94942.59;1030972;28;19905;-69
2022/09/15 00:50:49;;;;;;;;;;;;;;;16.34;100.00;94940.06;1034880;28;19917;-67
2022/09/15 00:51:20;;;;;;;;;;;;;;;16.38;100.00;94943.63;1030473;28;19901;-67
2022/09/15 00:51:51;;;;;;;;;;;;;;;16.38;100.00;94947.03;1034300;28;19923;-69
2022/09/15 00:52:24;;;;;;;;;;;;;;;16.38;100.00;94940.97;1034271;28;19956;-68
2022/09/15 00:52:55;;;;;;;;;;;;;;;16.25;100.00;94917.03;1034507;28;19916;-68
2022/09/15 00:53:26;;;;;;;;;;;;;;;16.40;100.00;94944.88;1030292;28;19905;-66
2022/09/15 00:53:56;;;;;;;;;;;;;;;16.40;100.00;94941.44;1034578;28;19940;-68
2022/09/15 00:54:47;;;;;;;;;;;;;;;16.39;100.00;94939.88;1034531;28;19941;-68
2022/09/15 00:55:31;;;;;;;;;;;;;;;16.39;100.00;94945.16;1039713;28;19905;-67
2022/09/15 00:56:01;;;;;;;;;;;;;;;16.41;100.00;94943.00;1034354;28;20202;-69
2022/09/15 00:56:32;;;;;;;;;;;;;;;16.43;100.00;94943.44;1038379;28;19916;-66
2022/09/15 00:57:03;;;;;;;;;;;;;;;16.42;100.00;94941.88;1033923;28;19960;-66
2022/09/15 00:57:33;;;;;;;;;;;;;;;16.42;100.00;94944.53;1038906;28;19991;-65
2022/09/15 00:58:05;;;;;;;;;;;;;;;16.44;100.00;94934.41;1038875;28;19928;-67
2022/09/15 00:58:37;;;;;;;;;;;;;;;16.52;100.00;94948.69;1035190;28;19906;-67
2022/09/15 00:59:09;;;;;;;;;;;;;;;16.50;100.00;94941.84;1042794;28;19905;-67
2022/09/15 00:59:39;;;;;;;;;;;;;;;16.51;100.00;94945.28;1039361;28;19996;-67
2022/09/15 01:00:13;;;;;;;;;;;;;;;16.50;100.00;94941.84;1039074;28;19911;-68
2022/09/15 01:00:46;;;;;;;;;;;;;;;16.52;100.00;94941.53;1035283;28;19905;-68
2022/09/15 01:01:16;;;;;;;;;;;;;;;16.53;100.00;94937.78;1031512;28;19941;-69
2022/09/15 01:01:48;;;;;;;;;;;;;;;16.54;100.00;94939.34;1036238;28;19906;-69
2022/09/15 01:02:20;;;;;;;;;;;;;;;16.54;100.00;94938.56;1042852;28;20380;-67
2022/09/15 01:02:50;;;;;;;;;;;;;;;16.57;100.00;94933.41;1043201;28;19996;-69
2022/09/15 01:03:22;;;;;;;;;;;;;;;16.60;100.00;94935.44;1035324;28;19920;-69
2022/09/15 01:03:52;;;;;;;;;;;;;;;16.59;100.00;94936.50;1033148;28;19956;-67
2022/09/15 01:04:23;;;;;;;;;;;;;;;16.56;100.00;94937.13;1035482;28;19912;-68
2022/09/15 01:04:53;;;;;;;;;;;;;;;16.57;100.00;94938.72;1035224;28;19905;-67
2022/09/15 01:05:30;;;;;;;;;;;;;;;16.57;100.00;94938.72;1039964;28;19975;-67
2022/09/15 01:06:06;;;;;;;;;;;;;;;16.57;100.00;94930.75;1043528;28;20745;-68
2022/09/15 01:06:38;;;;;;;;;;;;;;;16.56;100.00;94931.84;1039381;28;20406;-66
2022/09/15 01:07:08;;;;;;;;;;;;;;;16.57;100.00;94930.75;1035866;28;19949;-67
2022/09/15 01:07:46;;;;;;;;;;;;;;;16.57;100.00;94937.94;1039431;28;19905;-66
2022/09/15 01:08:17;;;;;;;;;;;;;;;16.56;100.00;94931.84;1040608;28;19909;-66
2022/09/15 01:08:50;;;;;;;;;;;;;;;16.56;100.00;94931.06;1040354;28;20386;-68
2022/09/15 01:09:22;;;;;;;;;;;;;;;16.56;100.00;94929.19;1038073;28;20434;-68
2022/09/15 01:09:59;;;;;;;;;;;;;;;16.55;100.00;94930.28;1035254;28;19905;-66
2022/09/15 01:10:33;;;;;;;;;;;;;;;16.53;100.00;94927.19;1032782;28;20346;-66
2022/09/15 01:11:04;;;;;;;;;;;;;;;16.53;100.00;94932.47;1031979;28;19910;-67
2022/09/15 01:11:34;;;;;;;;;;;;;;;16.55;100.00;94930.28;1036606;28;19905;-66
2022/09/15 01:12:04;;;;;;;;;;;;;;;16.55;100.00;94927.66;1035768;28;19913;-65
2022/09/15 01:12:35;;;;;;;;;;;;;;;16.59;100.00;94936.50;1035334;28;19913;-65
2022/09/15 01:13:06;;;;;;;;;;;;;;;16.56;100.00;94923.91;1038745;28;20282;-68
2022/09/15 01:13:36;;;;;;;;;;;;;;;16.56;100.00;94931.06;1035510;28;19917;-67
2022/09/15 01:14:06;;;;;;;;;;;;;;;16.55;100.00;94932.94;1035331;28;20214;-67
2022/09/15 01:14:37;;;;;;;;;;;;;;;16.56;100.00;94921.25;1036972;28;20313;-68
2022/09/15 01:15:07;;;;;;;;;;;;;;;16.55;100.00;94918.94;1035005;28;19952;-67
2022/09/15 01:15:53;;;;;;;;;;;;;;;16.53;100.00;94919.22;1035392;28;19906;-69
2022/09/15 01:16:50;;;;;;;;;;;;;;;16.53;100.00;94937.78;1038236;28;19905;-69
2022/09/15 01:17:46;;;;;;;;;;;;;;;16.55;100.00;94927.66;1034662;28;19905;-70
2022/09/15 01:18:19;;;;;;;;;;;;;;;16.53;100.00;94927.19;1021709;29;19909;-67
2022/09/15 01:18:57;;;;;;;;;;;;;;;16.53;100.00;94929.06;1026027;28;19945;-70
2022/09/15 01:19:33;;;;;;;;;;;;;;;16.53;100.00;94927.19;1039951;28;19905;-68
2022/09/15 01:20:06;;;;;;;;;;;;;;;16.54;100.00;94927.97;1047632;28;19953;-67
2022/09/15 01:20:59;;;;;;;;;;;;;;;16.53;100.00;94927.19;1049924;28;19904;-67
2022/09/15 01:21:34;;;;;;;;;;;;;;;16.54;100.00;94928.75;1042716;28;19909;-68
2022/09/15 01:22:13;;;;;;;;;;;;;;;16.55;100.00;94932.94;1039005;28;19905;-67
2022/09/15 01:23:02;;;;;;;;;;;;;;;16.56;100.00;94931.06;1042606;28;19909;-70
2022/09/15 01:23:32;;;;;;;;;;;;;;;16.61;100.00;94929.03;1035105;28;19917;-67
2022/09/15 01:24:04;;;;;;;;;;;;;;;16.62;100.00;94927.91;1042434;28;19912;-64
2022/09/15 01:24:40;;;;;;;;;;;;;;;16.60;100.00;94926.69;1046023;28;19938;-67
2022/09/15 01:25:22;;;;;;;;;;;;;;;16.60;100.00;94922.19;1043330;28;19963;-66
2022/09/15 01:26:01;;;;;;;;;;;;;;;16.61;100.00;94930.91;1043366;28;19920;-69
2022/09/15 01:26:37;;;;;;;;;;;;;;;16.61;100.00;94934.31;1041802;28;20358;-68
2022/09/15 01:27:11;;;;;;;;;;;;;;;16.67;100.00;94926.97;1043423;28;19904;-68
2022/09/15 01:28:00;;;;;;;;;;;;;;;16.68;100.00;94926.63;1043343;28;19911;-68
2022/09/15 01:28:49;;;;;;;;;;;;;;;16.68;100.00;94926.63;1047665;28;19930;-69
2022/09/15 01:29:31;;;;;;;;;;;;;;;16.69;100.00;94919.47;1047846;28;19904;-68
2022/09/15 01:30:05;;;;;;;;;;;;;;;16.72;100.00;94924.91;1046371;28;20674;-68
2022/09/15 01:30:36;;;;;;;;;;;;;;;16.70;100.00;94927.09;1043564;28;19928;-66
2022/09/15 01:31:09;;;;;;;;;;;;;;;16.71;100.00;94923.34;1042826;28;19912;-68
2022/09/15 01:33:02;;;;;;;;;;;;;;;16.71;100.00;94923.34;1044242;28;19905;-69
2022/09/15 01:33:30;;;;;;;;;;;;;;;16.70;100.00;94924.47;1047415;28;20101;-70
2022/09/15 01:34:05;;;;;;;;;;;;;;;16.70;100.00;94926.34;1049896;28;20374;-67
2022/09/15 01:34:37;;;;;;;;;;;;;;;16.69;100.00;94917.59;1047629;28;19978;-66
2022/09/15 01:35:09;;;;;;;;;;;;;;;16.71;100.00;94917.28;1035819;28;19905;-67
2022/09/15 01:35:51;;;;;;;;;;;;;;;16.71;100.00;94917.28;1035397;28;19941;-69
2022/09/15 01:36:26;;;;;;;;;;;;;;;16.71;100.00;94915.41;1037236;28;20432;-67
2022/09/15 01:36:59;;;;;;;;;;;;;;;16.70;100.00;94915.75;1036228;28;20339;-68
2022/09/15 01:37:30;;;;;;;;;;;;;;;16.68;100.00;94912.63;1039394;28;19912;-67
2022/09/15 01:38:09;;;;;;;;;;;;;;;16.66;100.00;94920.09;1034973;28;19917;-68
2022/09/15 01:38:48;;;;;;;;;;;;;;;16.65;100.00;94914.03;1035297;28;19906;-66
2022/09/15 01:39:20;;;;;;;;;;;;;;;16.62;100.00;94909.38;1041109;28;19916;-66
2022/09/15 01:39:50;;;;;;;;;;;;;;;16.60;100.00;94916.88;1043493;28;19913;-67
2022/09/15 01:40:20;;;;;;;;;;;;;;;16.63;100.00;94908.31;1047312;28;20329;-67
2022/09/15 01:41:03;;;;;;;;;;;;;;;16.64;100.00;94909.84;1047593;28;19901;-66
2022/09/15 01:41:33;;;;;;;;;;;;;;;16.62;100.00;94909.38;1044702;28;19958;-67
2022/09/15 01:42:07;;;;;;;;;;;;;;;16.64;100.00;94915.13;1041486;28;19994;-68
2022/09/15 01:42:38;;;;;;;;;;;;;;;16.64;100.00;94906.41;1033154;28;20406;-66
2022/09/15 01:43:08;;;;;;;;;;;;;;;16.60;100.00;94911.59;1027594;28;19906;-70
2022/09/15 01:43:41;;;;;;;;;;;;;;;16.57;100.00;94912.22;1026975;28;19906;-68
2022/09/15 01:44:24;;;;;;;;;;;;;;;16.56;100.00;94913.31;1026990;28;20306;-70
2022/09/15 01:44:55;;;;;;;;;;;;;;;16.56;100.00;94908.00;1031163;28;19905;-72
2022/09/15 01:45:27;;;;;;;;;;;;;;;16.55;100.00;94914.41;1031197;28;20414;-67
2022/09/15 01:45:57;;;;;;;;;;;;;;;16.54;100.00;94917.38;1035350;28;19905;-68
2022/09/15 01:46:28;;;;;;;;;;;;;;;16.53;100.00;94913.94;1035371;28;20542;-67
2022/09/15 01:46:59;;;;;;;;;;;;;;;16.52;100.00;94914.28;1039162;28;19987;-68
2022/09/15 01:47:30;;;;;;;;;;;;;;;16.53;100.00;94910.50;1039452;28;19909;-68
2022/09/15 01:48:00;;;;;;;;;;;;;;;16.48;100.00;94908.84;1039692;28;20366;-66
2022/09/15 01:48:31;;;;;;;;;;;;;;;16.49;100.00;94907.72;1042907;28;19909;-66
2022/09/15 01:49:01;;;;;;;;;;;;;;;16.48;100.00;94908.84;1039313;28;19915;-70
2022/09/15 01:50:00;;;;;;;;;;;;;;;16.49;100.00;94913.03;1039382;28;19920;-66
2022/09/15 01:50:34;;;;;;;;;;;;;;;16.50;100.00;94911.97;1030275;28;19906;-66
2022/09/15 01:51:05;;;;;;;;;;;;;;;16.52;100.00;94908.97;1042798;28;19936;-68
2022/09/15 01:51:35;;;;;;;;;;;;;;;16.48;100.00;94908.84;1043318;28;19954;-68
2022/09/15 01:52:05;;;;;;;;;;;;;;;16.49;100.00;94920.97;1046971;28;20292;-66
2022/09/15 01:52:36;;;;;;;;;;;;;;;16.48;100.00;94909.63;1046297;28;19908;-69
2022/09/15 01:53:08;;;;;;;;;;;;;;;16.50;100.00;94907.44;1040417;28;19916;-67
2022/09/15 01:53:38;;;;;;;;;;;;;;;16.29;100.00;94879.34;1040443;28;19970;-67
2022/09/15 01:54:08;;;;;;;;;;;;;;;16.47;100.00;94907.31;1039153;28;19913;-67
2022/09/15 01:54:44;;;;;;;;;;;;;;;16.46;100.00;94901.22;1039080;28;19974;-67
2022/09/15 01:55:17;;;;;;;;;;;;;;;16.45;100.00;94904.19;1029726;28;19952;-68
2022/09/15 01:55:47;;;;;;;;;;;;;;;16.41;100.00;94905.94;1034699;28;20312;-68
2022/09/15 01:56:17;;;;;;;;;;;;;;;16.38;100.00;94909.97;1040147;28;19909;-67
2022/09/15 01:56:48;;;;;;;;;;;;;;;16.38;100.00;94903.91;1040085;28;19983;-67
2022/09/15 01:57:21;;;;;;;;;;;;;;;16.41;100.00;94908.56;1043005;28;19912;-67
2022/09/15 01:57:51;;;;;;;;;;;;;;;16.46;100.00;94911.03;1043408;28;19955;-68
2022/09/15 01:58:21;;;;;;;;;;;;;;;16.45;100.00;94906.84;1043650;28;19916;-68
2022/09/15 01:58:52;;;;;;;;;;;;;;;16.44;100.00;94902.63;1047702;28;19947;-71
2022/09/15 01:59:22;;;;;;;;;;;;;;;16.41;100.00;94897.97;1043296;28;19924;-68
2022/09/15 01:59:53;;;;;;;;;;;;;;;16.39;100.00;94902.81;1039317;28;19979;-70
2022/09/15 02:00:23;;;;;;;;;;;;;;;16.41;100.00;94905.94;1039071;28;19955;-68
2022/09/15 02:01:02;;;;;;;;;;;;;;;16.40;100.00;94904.38;1038922;28;19971;-68
2022/09/15 02:01:32;;;;;;;;;;;;;;;16.40;100.00;94899.09;1040480;28;20358;-69
2022/09/15 02:02:04;;;;;;;;;;;;;;;16.37;100.00;94903.13;1044162;28;20012;-68
2022/09/15 02:02:35;;;;;;;;;;;;;;;16.40;100.00;94907.03;1043376;28;19955;-71
2022/09/15 02:03:26;;;;;;;;;;;;;;;16.39;100.00;94902.81;1039157;28;20428;-66
2022/09/15 02:04:10;;;;;;;;;;;;;;;16.35;100.00;94902.66;1042696;28;19905;-65
2022/09/15 02:04:51;;;;;;;;;;;;;;;16.37;100.00;94902.38;1040316;28;20301;-68
2022/09/15 02:05:24;;;;;;;;;;;;;;;16.39;100.00;94916.81;1046751;28;19951;-69
2022/09/15 02:06:01;;;;;;;;;;;;;;;16.36;100.00;94906.09;1035083;28;20015;-67
2022/09/15 02:06:36;;;;;;;;;;;;;;;16.38;100.00;94907.34;1036663;28;20398;-67
2022/09/15 02:07:35;;;;;;;;;;;;;;;16.37;100.00;94910.31;1039085;28;19913;-68
2022/09/15 02:08:12;;;;;;;;;;;;;;;16.36;100.00;94901.56;1035963;28;19921;-66
2022/09/15 02:08:44;;;;;;;;;;;;;;;16.34;100.00;94913.59;1043345;28;19912;-66
2022/09/15 02:09:14;;;;;;;;;;;;;;;16.30;100.00;94897.56;1037611;28;19913;-69
2022/09/15 02:09:49;;;;;;;;;;;;;;;16.26;100.00;94905.38;1044454;28;20465;-66
2022/09/15 02:10:20;;;;;;;;;;;;;;;16.27;100.00;94904.28;1044192;28;20590;-67
2022/09/15 02:10:57;;;;;;;;;;;;;;;16.28;100.00;94905.03;1048495;28;19920;-66
2022/09/15 02:11:29;;;;;;;;;;;;;;;16.27;100.00;94914.09;1043097;28;19962;-66
2022/09/15 02:12:01;;;;;;;;;;;;;;;16.24;100.00;94909.44;1039790;28;20015;-70
2022/09/15 02:12:32;;;;;;;;;;;;;;;16.30;100.00;94902.88;1039003;28;19916;-67
2022/09/15 02:13:07;;;;;;;;;;;;;;;16.27;100.00;94904.28;1042709;28;20373;-67
2022/09/15 02:13:50;;;;;;;;;;;;;;;16.29;100.00;94911.13;1041202;28;19913;-68
2022/09/15 02:14:27;;;;;;;;;;;;;;;16.32;100.00;94910.47;1049521;28;20003;-66
2022/09/15 02:15:02;;;;;;;;;;;;;;;16.32;100.00;94903.31;1043422;28;20015;-70
2022/09/15 02:15:35;;;;;;;;;;;;;;;16.36;100.00;94906.88;1043246;28;19959;-67
2022/09/15 02:16:12;;;;;;;;;;;;;;;16.36;100.00;94911.38;1043112;28;19912;-68
2022/09/15 02:16:45;;;;;;;;;;;;;;;16.38;100.00;94912.63;1041111;28;19909;-66
2022/09/15 02:17:16;;;;;;;;;;;;;;;16.36;100.00;94908.75;1041301;28;19913;-66
2022/09/15 02:17:49;;;;;;;;;;;;;;;16.35;100.00;94910.63;1039002;28;19952;-67
2022/09/15 02:18:29;;;;;;;;;;;;;;;16.36;100.00;94900.78;1035784;28;19928;-68
2022/09/15 02:18:59;;;;;;;;;;;;;;;16.38;100.00;94914.50;1036895;28;20011;-69
2022/09/15 02:19:30;;;;;;;;;;;;;;;16.39;100.00;94905.47;1036570;28;20295;-69
2022/09/15 02:20:15;;;;;;;;;;;;;;;16.39;100.00;94911.53;1036563;28;20018;-66
2022/09/15 02:20:51;;;;;;;;;;;;;;;16.39;100.00;94910.75;1037388;28;19913;-67
2022/09/15 02:21:28;;;;;;;;;;;;;;;16.39;100.00;94910.75;1036974;28;20461;-68
2022/09/15 02:22:14;;;;;;;;;;;;;;;16.38;100.00;94901.25;1042647;28;20003;-67
2022/09/15 02:22:46;;;;;;;;;;;;;;;16.36;100.00;94906.09;1043232;28;20505;-68
2022/09/15 02:23:42;;;;;;;;;;;;;;;16.36;100.00;94916.69;1034252;28;19917;-68
2022/09/15 02:24:15;;;;;;;;;;;;;;;16.36;100.00;94906.88;1035916;28;19916;-67
2022/09/15 02:24:50;;;;;;;;;;;;;;;16.37;100.00;94908.44;1030914;28;19968;-68
2022/09/15 02:25:25;;;;;;;;;;;;;;;16.39;100.00;94913.41;1038956;28;19966;-68
2022/09/15 02:25:57;;;;;;;;;;;;;;;16.39;100.00;94905.47;1034950;28;19968;-70
2022/09/15 02:26:27;;;;;;;;;;;;;;;16.37;100.00;94907.66;1036766;28;20314;-67
2022/09/15 02:26:57;;;;;;;;;;;;;;;16.36;100.00;94911.38;1038481;28;19973;-68
2022/09/15 02:27:28;;;;;;;;;;;;;;;16.34;100.00;94913.59;1035105;28;20016;-71
2022/09/15 02:28:00;;;;;;;;;;;;;;;16.36;100.00;94912.16;1035452;28;19909;-68
2022/09/15 02:28:30;;;;;;;;;;;;;;;16.38;100.00;94898.63;1043342;28;20453;-66
2022/09/15 02:29:02;;;;;;;;;;;;;;;16.37;100.00;94903.13;1043637;28;19959;-66
2022/09/15 02:29:32;;;;;;;;;;;;;;;16.39;100.00;94913.41;1048019;28;20282;-66
2022/09/15 02:30:05;;;;;;;;;;;;;;;16.38;100.00;94911.84;1046680;28;19999;-66
2022/09/15 02:30:36;;;;;;;;;;;;;;;16.38;100.00;94919.78;1043843;28;20336;-66
2022/09/15 02:31:07;;;;;;;;;;;;;;;16.40;100.00;94926.34;1043239;28;19917;-67
2022/09/15 02:31:38;;;;;;;;;;;;;;;16.40;100.00;94918.38;1039548;28;19912;-68
2022/09/15 02:32:08;;;;;;;;;;;;;;;16.39;100.00;94918.69;1035909;28;19913;-68
2022/09/15 02:32:40;;;;;;;;;;;;;;;16.39;100.00;94921.34;1040004;28;20305;-66
2022/09/15 02:33:12;;;;;;;;;;;;;;;16.37;100.00;94918.25;1035756;28;19909;-68
2022/09/15 02:34:00;;;;;;;;;;;;;;;16.38;100.00;94909.22;1036356;28;19909;-67
2022/09/15 02:34:34;;;;;;;;;;;;;;;16.39;100.00;94908.09;1032765;28;19933;-67
2022/09/15 02:35:05;;;;;;;;;;;;;;;16.41;100.00;94908.56;1041812;28;20325;-67
2022/09/15 02:35:35;;;;;;;;;;;;;;;16.39;100.00;94908.09;1042882;28;19994;-66
2022/09/15 02:36:06;;;;;;;;;;;;;;;16.38;100.00;94902.03;1035672;28;20352;-68
2022/09/15 02:36:36;;;;;;;;;;;;;;;16.33;100.00;94912.81;1031471;28;19999;-66
2022/09/15 02:37:07;;;;;;;;;;;;;;;16.34;100.00;94903.00;1027744;28;19918;-66
2022/09/15 02:37:37;;;;;;;;;;;;;;;16.33;100.00;94906.72;1031715;28;20012;-67
2022/09/15 02:38:08;;;;;;;;;;;;;;;16.29;100.00;94906.59;1040019;28;20402;-69
2022/09/15 02:38:41;;;;;;;;;;;;;;;16.30;100.00;94902.06;1043737;28;20531;-67
2022/09/15 02:39:12;;;;;;;;;;;;;;;16.27;100.00;94904.28;1043834;28;20387;-66
2022/09/15 02:39:44;;;;;;;;;;;;;;;16.25;100.00;94898.50;1039856;28;19995;-67
2022/09/15 02:40:14;;;;;;;;;;;;;;;16.30;100.00;94905.50;1036140;28;19943;-66
2022/09/15 02:40:45;;;;;;;;;;;;;;;16.27;100.00;94914.09;1039667;28;19912;-66
2022/09/15 02:41:16;;;;;;;;;;;;;;;16.25;100.00;94898.50;1031038;28;19914;-66
2022/09/15 02:41:46;;;;;;;;;;;;;;;16.25;100.00;94895.88;1031666;28;19916;-68
2022/09/15 02:42:23;;;;;;;;;;;;;;;16.28;100.00;94899.75;1039744;28;19959;-66
2022/09/15 02:42:54;;;;;;;;;;;;;;;16.24;100.00;94899.63;1035498;28;19920;-66
2022/09/15 02:43:25;;;;;;;;;;;;;;;16.24;100.00;94904.91;1036605;28;20408;-67
2022/09/15 02:43:56;;;;;;;;;;;;;;;16.22;100.00;94896.50;1036730;28;19940;-65
2022/09/15 02:44:26;;;;;;;;;;;;;;;16.20;100.00;94903.22;1039859;28;19967;-69
2022/09/15 02:44:57;;;;;;;;;;;;;;;16.20;100.00;94909.28;1043559;28;20034;-68
2022/09/15 02:45:29;;;;;;;;;;;;;;;16.16;100.00;94908.38;1035822;28;19916;-67
2022/09/15 02:45:59;;;;;;;;;;;;;;;16.18;100.00;94897.47;1039688;28;19999;-67
2022/09/15 02:46:29;;;;;;;;;;;;;;;16.17;100.00;94904.63;1035598;28;19909;-67
2022/09/15 02:47:00;;;;;;;;;;;;;;;16.18;100.00;94900.88;1035847;28;19909;-69
2022/09/15 02:47:31;;;;;;;;;;;;;;;16.20;100.00;94904.00;1044175;28;20429;-66
2022/09/15 02:48:01;;;;;;;;;;;;;;;16.21;100.00;94899.47;1048087;28;19985;-66
2022/09/15 02:48:31;;;;;;;;;;;;;;;16.17;100.00;94899.34;1047786;28;20462;-65
2022/09/15 02:49:02;;;;;;;;;;;;;;;16.13;100.00;94906.38;1039534;28;19909;-66
2022/09/15 02:49:32;;;;;;;;;;;;;;;16.12;100.00;94898.72;1035562;28;19921;-67
2022/09/15 02:50:02;;;;;;;;;;;;;;;16.12;100.00;94904.03;1031443;28;19914;-69
2022/09/15 02:50:33;;;;;;;;;;;;;;;16.10;100.00;94898.28;1031654;28;19920;-66